createdAt,value
2022-10-01T05:03:51.399Z,20.38
2022-10-01T05:07:53.640Z,18.60
2022-10-01T05:11:55.812Z,19.65
2022-10-01T05:16:02.354Z,17.42
2022-10-01T05:20:06.700Z,17.90
2022-10-01T05:24:08.809Z,15.07
2022-10-01T05:28:10.856Z,16.23
2022-10-01T05:32:13.354Z,15.88
2022-10-01T05:36:16.155Z,13.75
2022-10-01T05:40:18.612Z,10.18
2022-10-01T05:44:20.689Z,14.63
2022-10-01T05:48:22.777Z,13.38
2022-10-01T05:52:24.865Z,12.85
2022-10-01T05:56:26.933Z,12.45
2022-10-01T06:00:31.518Z,7.22
2022-10-01T06:04:37.750Z,8.88
2022-10-01T06:08:45.498Z,11.95
2022-10-01T06:12:48.591Z,10.13
2022-10-01T06:19:56.183Z,11.00
2022-10-01T06:23:58.239Z,10.27
2022-10-01T06:28:00.954Z,9.43
2022-10-01T06:32:03.228Z,6.88
2022-10-01T06:36:05.609Z,11.68
2022-10-01T06:40:08.075Z,9.98
2022-10-01T06:44:10.534Z,12.93
2022-10-01T06:48:14.952Z,12.20
2022-10-01T06:52:35.642Z,9.15
2022-10-01T06:56:37.854Z,9.77
2022-10-01T07:00:40.301Z,7.78
2022-10-01T07:04:42.371Z,8.10
2022-10-01T07:08:44.530Z,6.22
2022-10-01T07:12:50.404Z,8.07
2022-10-01T07:16:53.028Z,5.57
2022-10-01T07:20:57.572Z,7.28
2022-10-01T07:24:59.669Z,4.47
2022-10-01T07:29:01.941Z,4.75
2022-10-01T07:33:04.070Z,6.07
2022-10-01T07:37:06.943Z,4.20
2022-10-01T07:41:09.745Z,2.08
2022-10-01T07:45:12.165Z,2.67
2022-10-01T07:49:17.331Z,3.83
2022-10-01T07:57:50.329Z,2.83
2022-10-01T08:01:53.239Z,5.90
2022-10-01T08:05:55.743Z,2.47
2022-10-01T08:09:58.034Z,5.25
2022-10-01T08:14:00.366Z,1.63
2022-10-01T08:18:04.262Z,2.53
2022-10-01T08:22:07.305Z,1.92
2022-10-01T08:26:11.671Z,1.73
2022-10-01T08:30:14.012Z,2.00
2022-10-01T08:34:16.244Z,1.77
2022-10-01T08:38:19.810Z,2.55
2022-10-01T08:42:37.538Z,1.67
2022-10-01T08:46:39.996Z,2.50
2022-10-01T08:50:53.887Z,2.95
2022-10-01T08:55:00.743Z,2.60
2022-10-01T08:59:13.292Z,1.63
2022-10-01T09:03:16.945Z,5.20
2022-10-01T09:07:28.956Z,3.42
2022-10-01T09:11:59.212Z,3.15
2022-10-01T09:16:38.873Z,1.90
2022-10-01T09:20:47.904Z,2.55
2022-10-01T09:25:14.092Z,3.28
2022-10-01T09:29:24.295Z,3.08
2022-10-01T09:33:39.969Z,0.90
2022-10-01T09:37:49.178Z,2.08
2022-10-01T09:41:52.224Z,1.50
2022-10-01T09:45:55.213Z,3.20
2022-10-01T09:50:03.494Z,3.47
2022-10-01T09:54:11.505Z,1.85
2022-10-01T10:00:24.838Z,3.55
2022-10-01T10:04:35.898Z,1.17
2022-10-01T10:08:40.344Z,3.90
2022-10-01T10:12:44.246Z,5.15
2022-10-01T10:16:48.731Z,1.30
2022-10-01T10:20:55.111Z,3.30
2022-10-01T10:25:05.531Z,3.60
2022-10-01T10:29:25.034Z,1.60
2022-10-01T10:33:27.448Z,2.38
2022-10-01T10:37:34.619Z,1.05
2022-10-01T10:41:37.507Z,0.88
2022-10-01T10:45:45.414Z,3.03
2022-10-01T10:49:48.781Z,1.45
2022-10-01T10:53:51.031Z,1.30
2022-10-01T10:57:57.327Z,1.00
2022-10-01T11:02:02.523Z,2.60
2022-10-01T11:06:31.565Z,3.95
2022-10-01T11:10:53.379Z,3.22
2022-10-01T11:15:24.853Z,3.40
2022-10-01T11:19:48.733Z,3.58
2022-10-01T11:23:51.230Z,1.05
2022-10-01T11:28:31.950Z,3.38
2022-10-01T11:32:41.807Z,5.32
2022-10-01T11:36:50.957Z,2.17
2022-10-01T11:41:23.927Z,1.73
2022-10-01T11:45:32.699Z,5.25
2022-10-01T11:49:47.971Z,3.08
2022-10-01T11:53:58.428Z,3.08
2022-10-01T11:58:30.276Z,1.75
2022-10-01T12:02:47.665Z,2.72
2022-10-01T12:06:55.829Z,0.85
2022-10-01T12:11:11.866Z,2.13
2022-10-01T12:15:23.546Z,1.85
2022-10-01T12:19:36.615Z,2.35
2022-10-01T12:23:51.146Z,1.63
2022-10-01T12:28:12.681Z,2.10
2022-10-01T12:32:30.642Z,2.65
2022-10-01T12:36:44.478Z,2.33
2022-10-01T12:40:55.017Z,3.85
2022-10-01T12:45:02.947Z,6.60
2022-10-01T12:49:22.418Z,2.88
2022-10-01T12:53:51.320Z,2.55
2022-10-01T12:57:57.284Z,3.35
2022-10-01T13:02:30.425Z,3.22
2022-10-01T13:06:54.285Z,2.88
2022-10-01T13:11:25.189Z,2.95
2022-10-01T13:15:35.135Z,2.20
2022-10-01T13:19:37.307Z,1.40
2022-10-01T13:23:50.328Z,1.73
2022-10-01T13:28:21.327Z,5.53
2022-10-01T13:32:35.799Z,3.47
2022-10-01T13:36:38.344Z,5.00
2022-10-01T13:40:41.301Z,2.30
2022-10-01T13:44:43.442Z,3.70
2022-10-01T13:48:49.132Z,6.00
2022-10-01T13:52:53.250Z,6.03
2022-10-01T13:56:55.648Z,1.65
2022-10-01T14:01:00.982Z,3.15
2022-10-01T14:05:23.386Z,5.82
2022-10-01T14:09:32.650Z,3.13
2022-10-01T14:14:02.210Z,3.72
2022-10-01T14:18:10.309Z,1.83
2022-10-01T14:22:26.915Z,2.92
2022-10-01T14:26:43.071Z,1.15
2022-10-01T14:31:17.105Z,3.03
2022-10-01T14:35:20.738Z,1.58
2022-10-01T14:39:26.260Z,3.28
2022-10-01T14:43:31.575Z,0.85
2022-10-01T14:47:36.019Z,1.25
2022-10-01T14:55:54.985Z,2.90
2022-10-01T15:00:01.134Z,1.98
2022-10-01T15:04:14.777Z,2.10
2022-10-01T15:08:39.556Z,1.20
2022-10-01T15:12:41.938Z,0.60
2022-10-01T15:16:44.648Z,1.52
2022-10-01T15:21:00.390Z,1.48
2022-10-01T15:25:02.668Z,1.10
2022-10-01T15:29:12.212Z,2.70
2022-10-01T15:33:41.360Z,2.50
2022-10-01T15:37:49.966Z,3.38
2022-10-01T15:41:54.857Z,1.20
2022-10-01T15:46:11.182Z,0.75
2022-10-01T15:50:13.408Z,1.60
2022-10-01T15:54:15.658Z,3.70
2022-10-01T15:58:35.224Z,2.05
2022-10-01T16:02:37.524Z,1.15
2022-10-01T16:06:49.246Z,1.27
2022-10-01T16:11:13.038Z,3.28
2022-10-01T16:15:28.032Z,0.90
2022-10-01T16:19:31.406Z,1.55
2022-10-01T16:23:34.876Z,1.48
2022-10-01T16:27:48.548Z,1.85
2022-10-01T16:31:51.311Z,1.30
2022-10-01T16:36:08.195Z,1.05
2022-10-01T16:40:15.785Z,2.35
2022-10-01T16:44:19.999Z,4.95
2022-10-01T16:48:25.128Z,6.10
2022-10-01T16:52:27.175Z,2.55
2022-10-01T16:56:29.815Z,2.20
2022-10-01T17:00:32.971Z,3.63
2022-10-01T17:04:35.432Z,6.80
2022-10-01T17:08:37.583Z,2.28
2022-10-01T17:12:41.692Z,4.25
2022-10-01T17:16:44.014Z,2.28
2022-10-01T17:20:46.813Z,3.05
2022-10-01T17:24:49.286Z,3.15
2022-10-01T17:28:51.484Z,3.63
2022-10-01T17:32:53.545Z,1.75
2022-10-01T17:36:55.847Z,2.17
2022-10-01T17:41:00.452Z,1.48
2022-10-01T17:45:06.573Z,3.65
2022-10-01T17:49:08.875Z,4.68
2022-10-01T17:53:12.364Z,5.32
2022-10-01T17:57:14.446Z,5.40
2022-10-01T18:01:20.408Z,3.75
2022-10-01T18:05:22.677Z,5.80
2022-10-01T18:09:25.344Z,3.40
2022-10-01T18:13:27.573Z,3.30
2022-10-01T18:17:32.637Z,3.38
2022-10-01T18:21:34.973Z,4.50
2022-10-01T18:25:37.545Z,7.38
2022-10-01T18:29:39.759Z,4.82
2022-10-01T18:33:55.596Z,3.60
2022-10-01T18:38:12.705Z,3.30
2022-10-01T18:42:21.226Z,4.40
2022-10-01T18:46:23.405Z,1.67
2022-10-01T18:51:11.991Z,3.78
2022-10-01T18:55:42.917Z,3.13
2022-10-01T19:00:08.871Z,7.45
2022-10-01T19:04:35.185Z,4.10
2022-10-01T19:09:01.677Z,6.68
2022-10-01T19:13:41.260Z,7.18
2022-10-01T19:18:18.420Z,9.05
2022-10-01T19:22:46.892Z,4.55
2022-10-01T19:27:19.600Z,11.27
2022-10-01T19:31:35.638Z,6.03
2022-10-01T19:35:46.710Z,5.68
2022-10-01T19:39:51.753Z,4.78
2022-10-01T19:44:04.734Z,7.90
2022-10-01T19:48:23.808Z,4.90
2022-10-01T19:52:30.370Z,8.07
2022-10-01T19:56:34.931Z,6.85
2022-10-01T20:00:38.036Z,6.03
2022-10-01T20:04:53.507Z,3.67
2022-10-01T20:09:03.657Z,7.82
2022-10-01T20:13:21.367Z,10.57
2022-10-01T20:17:41.829Z,4.47
2022-10-01T20:22:10.834Z,6.88
2022-10-01T20:26:25.956Z,8.65
2022-10-01T20:30:33.918Z,6.75
2022-10-01T20:34:57.402Z,10.48
2022-10-01T20:39:13.687Z,10.05
2022-10-01T20:43:22.264Z,7.82
2022-10-01T20:47:40.425Z,7.30
2022-10-01T20:51:53.476Z,10.32
2022-10-01T20:56:02.092Z,7.68
2022-10-01T21:00:23.360Z,5.50
2022-10-01T21:04:32.354Z,12.95
2022-10-01T21:08:52.726Z,9.60
2022-10-01T21:13:07.699Z,10.10
2022-10-01T21:17:25.096Z,10.18
2022-10-01T21:21:55.163Z,10.32
2022-10-01T21:26:26.773Z,9.55
2022-10-01T21:30:57.049Z,8.60
2022-10-01T21:35:24.131Z,11.98
2022-10-01T21:39:45.648Z,10.35
2022-10-01T21:44:11.378Z,6.30
2022-10-01T21:48:27.599Z,8.30
2022-10-01T21:52:49.773Z,9.85
2022-10-01T21:57:14.793Z,7.25
2022-10-01T22:01:39.123Z,5.28
2022-10-01T22:05:57.291Z,6.05
2022-10-01T22:10:10.434Z,7.63
2022-10-01T22:14:19.580Z,8.30
2022-10-01T22:18:35.981Z,13.77
2022-10-01T22:22:39.378Z,9.85
2022-10-01T22:26:49.739Z,7.73
2022-10-01T22:30:56.313Z,11.13
2022-10-01T22:35:03.835Z,11.50
2022-10-01T22:39:23.095Z,14.35
2022-10-01T22:43:25.331Z,10.88
2022-10-01T22:47:39.496Z,9.02
2022-10-01T22:55:57.163Z,8.00
2022-10-01T23:00:07.551Z,8.95
2022-10-01T23:04:43.726Z,10.13
2022-10-01T23:08:55.020Z,9.68
2022-10-01T23:13:35.854Z,11.43
2022-10-01T23:17:54.229Z,9.60
2022-10-01T23:22:11.270Z,11.00
2022-10-01T23:26:35.235Z,10.88
2022-10-01T23:31:00.270Z,10.90
2022-10-01T23:35:20.952Z,9.15
2022-10-01T23:39:41.330Z,6.90
2022-10-01T23:43:50.996Z,5.43
2022-10-01T23:48:05.927Z,10.95
2022-10-01T23:52:21.455Z,7.35
2022-10-01T23:56:49.028Z,15.65
